createdAt,value
2023-01-26T00:04:35.974Z,12.70
2023-01-26T00:09:40.215Z,15.20
2023-01-26T00:14:50.335Z,13.70
2023-01-26T00:19:56.051Z,15.00
2023-01-26T00:25:00.429Z,17.40
2023-01-26T00:30:05.312Z,12.80
2023-01-26T00:35:10.105Z,11.50
2023-01-26T00:40:14.278Z,12.80
2023-01-26T00:45:18.470Z,12.90
2023-01-26T00:50:22.610Z,16.00
2023-01-26T00:55:32.723Z,17.00
2023-01-26T01:00:38.917Z,12.80
2023-01-26T01:05:43.298Z,14.10
2023-01-26T01:10:49.796Z,11.80
2023-01-26T01:15:54.179Z,12.40
2023-01-26T01:20:58.371Z,12.80
2023-01-26T01:26:03.441Z,11.70
2023-01-26T01:31:09.581Z,20.00
2023-01-26T01:36:16.197Z,11.30
2023-01-26T01:41:23.087Z,12.60
2023-01-26T01:46:36.029Z,13.80
2023-01-26T01:51:48.865Z,10.80
2023-01-26T01:56:55.453Z,11.90
2023-01-26T02:02:00.015Z,11.00
2023-01-26T02:07:05.670Z,12.10
2023-01-26T02:12:13.368Z,10.00
2023-01-26T02:17:17.308Z,11.10
2023-01-26T02:22:55.845Z,11.20
2023-01-26T02:28:01.098Z,13.50
2023-01-26T02:33:05.319Z,10.30
2023-01-26T02:38:10.493Z,11.60
2023-01-26T02:43:14.617Z,11.30
2023-01-26T02:48:37.391Z,11.70
2023-01-26T02:53:41.510Z,9.70
2023-01-26T02:58:46.053Z,10.50
2023-01-26T03:03:50.297Z,10.90
2023-01-26T03:08:57.094Z,10.70
2023-01-26T03:14:01.163Z,10.90
2023-01-26T03:19:31.559Z,10.80
2023-01-26T03:24:54.217Z,10.30
2023-01-26T03:29:59.067Z,10.00
2023-01-26T03:35:04.027Z,9.90
2023-01-26T03:40:27.702Z,10.50
2023-01-26T03:45:50.666Z,9.50
2023-01-26T03:51:14.652Z,10.50
2023-01-26T03:56:19.708Z,10.90
2023-01-26T04:01:33.363Z,11.30
2023-01-26T04:06:58.378Z,10.80
2023-01-26T04:12:03.224Z,11.40
2023-01-26T04:17:26.372Z,10.80
2023-01-26T04:22:31.681Z,11.20
2023-01-26T04:27:35.677Z,12.10
2023-01-26T04:32:41.468Z,12.10
2023-01-26T04:37:45.953Z,12.30
2023-01-26T04:42:50.951Z,11.60
2023-01-26T04:47:55.288Z,11.10
2023-01-26T04:52:59.116Z,12.00
2023-01-26T04:58:04.007Z,10.90
2023-01-26T05:03:10.370Z,11.90
2023-01-26T05:08:15.207Z,11.80
2023-01-26T05:13:19.733Z,12.40
2023-01-26T05:18:42.922Z,12.50
2023-01-26T05:24:06.319Z,12.70
2023-01-26T05:29:33.263Z,12.10
2023-01-26T05:34:38.810Z,12.80
2023-01-26T05:39:43.369Z,13.10
2023-01-26T05:44:47.276Z,13.10
2023-01-26T05:49:52.766Z,12.80
2023-01-26T05:55:05.780Z,12.40
2023-01-26T06:00:13.208Z,13.80
2023-01-26T06:05:25.014Z,12.90
2023-01-26T06:10:29.882Z,12.70
2023-01-26T06:15:52.518Z,12.60
2023-01-26T06:21:01.683Z,11.90
2023-01-26T06:26:09.913Z,12.00
2023-01-26T06:31:15.832Z,11.60
2023-01-26T06:36:20.524Z,11.40
2023-01-26T06:41:25.787Z,13.80
2023-01-26T06:46:30.031Z,12.20
2023-01-26T06:51:54.265Z,11.90
2023-01-26T06:57:02.141Z,12.50
2023-01-26T07:02:26.521Z,11.80
2023-01-26T07:07:30.770Z,12.70
2023-01-26T07:12:43.494Z,13.60
2023-01-26T07:17:47.523Z,13.10
2023-01-26T07:22:52.385Z,15.40
2023-01-26T07:28:00.622Z,27.00
2023-01-26T07:33:05.050Z,23.00
2023-01-26T07:38:09.192Z,18.10
2023-01-26T07:43:15.419Z,17.40
2023-01-26T07:48:26.063Z,14.20
2023-01-26T07:53:31.275Z,15.80
2023-01-26T07:58:36.503Z,17.30
2023-01-26T08:03:41.627Z,18.90
2023-01-26T08:08:46.981Z,21.50
2023-01-26T08:13:51.037Z,18.20
2023-01-26T08:18:55.053Z,28.30
2023-01-26T08:24:02.288Z,22.20
2023-01-26T08:29:06.321Z,21.10
2023-01-26T08:34:10.228Z,14.20
2023-01-26T08:39:14.048Z,18.60
2023-01-26T08:44:18.093Z,16.00
2023-01-26T08:49:22.331Z,29.30
2023-01-26T08:54:26.246Z,16.00
2023-01-26T08:59:30.480Z,17.30
2023-01-26T09:04:34.533Z,15.20
2023-01-26T09:09:39.184Z,17.10
2023-01-26T09:14:43.095Z,17.00
2023-01-26T09:19:47.125Z,19.30
2023-01-26T09:24:51.361Z,13.60
2023-01-26T09:29:56.439Z,15.90
2023-01-26T09:35:00.343Z,15.10
2023-01-26T09:40:05.370Z,16.50
2023-01-26T09:45:15.390Z,14.90
2023-01-26T09:50:27.803Z,15.10
2023-01-26T09:55:32.243Z,16.60
2023-01-26T10:00:50.134Z,18.50
2023-01-26T10:06:22.260Z,16.00
2023-01-26T10:11:56.183Z,15.00
2023-01-26T10:17:01.550Z,15.00
2023-01-26T10:22:20.285Z,15.00
2023-01-26T10:27:24.228Z,16.10
2023-01-26T10:32:28.376Z,16.00
2023-01-26T10:37:35.028Z,14.80
2023-01-26T10:42:40.296Z,14.90
2023-01-26T10:48:02.162Z,13.70
2023-01-26T10:58:55.368Z,13.50
2023-01-26T11:04:02.470Z,14.60
2023-01-26T11:09:15.502Z,16.90
2023-01-26T11:14:20.259Z,16.30
2023-01-26T11:20:15.570Z,17.20
2023-01-26T11:25:31.033Z,18.10
2023-01-26T11:30:40.830Z,14.70
2023-01-26T11:36:14.308Z,16.20
2023-01-26T11:41:28.355Z,20.30
2023-01-26T11:46:37.519Z,13.70
2023-01-26T11:52:15.628Z,14.40
2023-01-26T11:57:27.543Z,17.20
2023-01-26T12:02:38.575Z,16.70
2023-01-26T12:07:57.851Z,13.80
2023-01-26T12:13:13.007Z,13.50
2023-01-26T12:18:42.255Z,16.80
2023-01-26T12:24:04.088Z,13.40
2023-01-26T12:29:27.099Z,15.80
2023-01-26T12:34:34.315Z,14.50
2023-01-26T12:39:46.368Z,16.00
2023-01-26T12:44:53.450Z,16.00
2023-01-26T12:50:06.487Z,18.50
2023-01-26T12:55:21.561Z,14.80
2023-01-26T13:00:31.252Z,14.30
2023-01-26T13:05:36.875Z,18.50
2023-01-26T13:10:50.327Z,20.40
2023-01-26T13:16:16.185Z,16.70
2023-01-26T13:21:39.998Z,18.30
2023-01-26T13:26:46.639Z,16.40
2023-01-26T13:31:51.184Z,18.20
2023-01-26T13:37:19.774Z,15.80
2023-01-26T13:42:28.632Z,17.40
2023-01-26T13:47:39.632Z,15.00
2023-01-26T13:52:43.731Z,16.60
2023-01-26T13:57:49.989Z,17.40
2023-01-26T14:02:54.919Z,18.00
2023-01-26T14:08:00.158Z,20.50
2023-01-26T14:13:05.066Z,19.30
2023-01-26T14:18:22.113Z,17.40
2023-01-26T14:23:33.264Z,15.80
2023-01-26T14:35:23.453Z,19.20
2023-01-26T14:40:31.785Z,18.90
2023-01-26T14:45:41.296Z,19.70
2023-01-26T14:50:47.161Z,16.50
2023-01-26T14:55:52.438Z,16.90
2023-01-26T15:00:59.248Z,17.80
2023-01-26T15:06:15.867Z,18.10
2023-01-26T15:11:51.495Z,15.90
2023-01-26T15:16:55.635Z,20.00
2023-01-26T15:22:00.403Z,20.10
2023-01-26T15:27:07.788Z,37.80
2023-01-26T15:32:28.699Z,39.30
2023-01-26T15:37:35.779Z,39.20
2023-01-26T15:42:39.844Z,33.60
2023-01-26T15:47:44.198Z,30.10
2023-01-26T15:52:48.118Z,32.50
2023-01-26T15:57:52.154Z,30.40
2023-01-26T16:02:56.290Z,31.30
2023-01-26T16:08:00.206Z,32.20
2023-01-26T16:13:12.346Z,33.30
2023-01-26T16:18:16.977Z,38.20
2023-01-26T16:23:25.427Z,34.80
2023-01-26T16:28:29.445Z,38.20
2023-01-26T16:33:33.987Z,36.30
2023-01-26T16:38:39.165Z,35.70
2023-01-26T16:43:43.782Z,32.80
2023-01-26T16:48:47.660Z,31.20
2023-01-26T16:53:53.999Z,43.50
2023-01-26T16:58:58.129Z,32.10
2023-01-26T17:04:02.678Z,31.90
2023-01-26T17:09:07.119Z,32.50
2023-01-26T17:14:12.554Z,32.80
2023-01-26T17:19:17.013Z,32.40
2023-01-26T17:24:21.101Z,34.10
2023-01-26T17:29:25.244Z,28.40
2023-01-26T17:34:29.523Z,27.50
2023-01-26T17:39:33.945Z,26.90
2023-01-26T17:44:40.567Z,24.80
2023-01-26T17:49:45.108Z,32.40
2023-01-26T17:54:49.240Z,38.90
2023-01-26T17:59:55.535Z,41.70
2023-01-26T18:05:00.517Z,37.40
2023-01-26T18:10:06.316Z,37.60
2023-01-26T18:15:12.409Z,44.60
2023-01-26T18:20:18.548Z,43.40
2023-01-26T18:25:24.516Z,41.60
2023-01-26T18:30:32.347Z,40.10
2023-01-26T18:35:37.162Z,38.00
2023-01-26T18:40:42.729Z,35.30
2023-01-26T18:45:48.276Z,34.10
2023-01-26T18:50:53.853Z,35.00
2023-01-26T18:56:07.683Z,30.20
2023-01-26T19:01:17.744Z,33.80
2023-01-26T19:06:24.870Z,31.80
2023-01-26T19:11:33.311Z,37.20
2023-01-26T19:16:41.177Z,33.70
2023-01-26T19:21:48.277Z,31.80
2023-01-26T19:26:54.169Z,37.40
2023-01-26T19:32:00.250Z,35.30
2023-01-26T19:37:05.831Z,33.40
2023-01-26T19:42:11.649Z,34.40
2023-01-26T19:47:16.913Z,35.30
2023-01-26T19:52:26.681Z,36.70
2023-01-26T19:57:33.712Z,38.20
2023-01-26T20:02:39.922Z,34.00
2023-01-26T20:07:46.159Z,38.40
2023-01-26T20:12:52.278Z,37.00
2023-01-26T20:17:58.531Z,41.90
2023-01-26T20:23:06.123Z,33.80
2023-01-26T20:28:10.859Z,33.90
2023-01-26T20:33:16.075Z,35.40
2023-01-26T20:38:20.691Z,41.00
2023-01-26T20:43:27.229Z,37.70
2023-01-26T20:48:36.018Z,38.00
2023-01-26T20:53:42.481Z,39.40
2023-01-26T20:58:48.270Z,33.90
2023-01-26T21:03:53.504Z,39.90
2023-01-26T21:09:00.747Z,35.80
2023-01-26T21:14:05.821Z,32.40
2023-01-26T21:19:10.923Z,35.50
2023-01-26T21:24:15.324Z,31.80
2023-01-26T21:29:20.218Z,31.60
2023-01-26T21:34:24.575Z,29.20
2023-01-26T21:39:29.008Z,36.00
2023-01-26T21:44:53.640Z,33.90
2023-01-26T21:49:59.905Z,32.90
2023-01-26T21:55:04.765Z,30.80
2023-01-26T22:00:10.274Z,26.20
2023-01-26T22:05:14.446Z,25.80
2023-01-26T22:10:18.444Z,27.60
2023-01-26T22:15:22.520Z,26.50
2023-01-26T22:20:26.655Z,30.80
2023-01-26T22:25:30.677Z,29.40
2023-01-26T22:30:35.369Z,29.90
2023-01-26T22:35:39.365Z,30.10
2023-01-26T22:40:43.287Z,34.00
2023-01-26T22:45:47.257Z,32.20
2023-01-26T22:50:51.161Z,33.30
2023-01-26T22:55:55.587Z,27.50
2023-01-26T23:01:09.078Z,28.90
2023-01-26T23:06:15.217Z,31.90
2023-01-26T23:11:20.472Z,29.20
2023-01-26T23:16:25.890Z,27.30
2023-01-26T23:21:30.309Z,25.10
2023-01-26T23:26:34.019Z,26.90
2023-01-26T23:31:38.204Z,28.90
2023-01-26T23:36:42.589Z,24.60
2023-01-26T23:41:46.526Z,26.30
2023-01-26T23:46:50.697Z,26.40
2023-01-26T23:51:54.887Z,28.00
2023-01-26T23:56:58.934Z,28.20
